Latest Weather Observations for King Island Airport

IDT60801

Issued at 10:02 am EDT Sunday 19 November 2017 (issued every 30 minutes, with the page automatically refreshed every 10 minutes)

About weather observations | Map of weather stations | Latest weather observations for TAS | Other Formats
Station Details ID: 098017 Name: KING ISLAND AIRPORT Lat: -39.88 Lon: 143.88 Height: 37.0 m
Data from the previous 72 hours. | See also: Recent months at King Island Airport
Date/Time
EDT
Temp
°C
App
Temp
°C
Dew
Point
°C
Rel
Hum
%
Delta-T
°C
Wind Press
QNH
hPa
Press
MSL
hPa
Rain since
9am
mm
Dir  Spd
km/h
Gust
km/h
Spd
kts
Gust
kts
19/10:00am 19.1 16.3 16.3 84 1.7 E 26 32 14 17 1022.2 1022.2 0.0
19/09:43am 19.3 16.9 16.5 84 1.7 E 24 32 13 17 1022.2 1022.2 0.0
19/09:30am 18.8 16.0 16.4 86 1.4 E 26 33 14 18 1022.0 1022.0 0.0
19/09:00am 18.2 14.9 16.0 87 1.3 E 28 35 15 19 1021.6 1021.6 0.0
19/08:30am 17.3 13.1 15.8 91 0.9 E 32 39 17 21 1021.0 1021.0 0.0
19/08:00am 16.5 12.6 15.5 94 0.6 E 30 39 16 21 1020.8 1020.8 0.0
19/07:30am 16.2 12.8 15.7 97 0.3 E 28 37 15 20 1020.4 1020.4 0.0
19/07:00am 15.9 12.4 15.6 98 0.2 E 28 37 15 20 1020.4 1020.4 0.0
19/06:30am 15.8 12.3 15.5 98 0.2 E 28 35 15 19 1020.1 1020.1 0.0
19/06:00am 15.8 11.9 15.5 98 0.2 E 30 37 16 20 1019.9 1019.9 0.0
19/05:30am 15.8 12.7 15.5 98 0.2 E 26 37 14 20 1019.6 1019.6 0.0
19/05:00am 15.8 12.3 15.5 98 0.2 E 28 37 15 20 1019.7 1019.7 0.0
19/04:30am 15.8 12.7 15.6 99 0.1 E 26 37 14 20 1019.5 1019.5 0.0
19/04:28am 15.8 12.3 15.6 99 0.1 E 28 46 15 25 1019.5 1019.5 0.0
19/04:00am 15.9 12.1 15.7 99 0.1 E 30 41 16 22 1019.3 1019.3 0.0
19/03:30am 15.9 11.7 15.6 98 0.2 E 32 39 17 21 1019.3 1019.3 0.0
19/03:00am 16.0 11.6 15.7 98 0.2 E 33 46 18 25 1019.3 1019.3 0.0
19/02:30am 16.0 11.8 15.7 98 0.2 E 32 46 17 25 1019.3 1019.3 0.0
19/02:00am 16.1 11.9 15.6 97 0.3 E 32 44 17 24 1019.3 1019.3 0.0
19/01:30am 16.1 11.9 15.6 97 0.3 E 32 41 17 22 1019.4 1019.4 0.0
19/01:00am 16.1 11.3 15.6 97 0.3 E 35 46 19 25 1019.6 1019.6 0.0
19/12:30am 16.2 12.0 15.6 96 0.4 E 32 44 17 24 1019.8 1019.8 0.0
19/12:00am 16.2 11.8 15.7 97 0.3 E 33 48 18 26 1019.7 1019.7 0.0
 
Date/Time
EDT
Temp
°C
App
Temp
°C
Dew
Point
°C
Rel
Hum
%
Delta-T
°C
Wind Press
QNH
hPa
Press
MSL
hPa
Rain since
9am
mm
Dir  Spd
km/h
Gust
km/h
Spd
kts
Gust
kts
18/11:30pm 16.1 10.9 15.6 97 0.3 E 37 50 20 27 1019.6 1019.6 0.0
18/11:00pm 16.1 11.3 15.6 97 0.3 E 35 48 19 26 1019.5 1019.5 0.0
18/10:30pm 16.1 11.9 15.6 97 0.3 E 32 46 17 25 1019.7 1019.7 0.0
18/10:00pm 16.0 11.5 15.5 97 0.3 ESE 33 46 18 25 1019.5 1019.5 0.0
18/09:30pm 16.2 12.3 15.6 96 0.4 E 30 37 16 20 1019.5 1019.5 0.0
18/09:00pm 16.2 12.7 15.6 96 0.3 E 28 41 15 22 1019.3 1019.3 0.0
18/08:30pm 16.3 12.1 15.7 96 0.4 E 32 41 17 22 1019.2 1019.2 0.0
18/08:00pm 16.5 12.7 15.7 95 0.5 E 30 41 16 22 1019.1 1019.1 0.0
18/07:30pm 16.9 14.3 15.8 93 0.6 E 24 33 13 18 1019.2 1019.2 0.0
18/07:02pm 17.5 13.7 15.8 90 1.0 E 30 39 16 21 1019.0 1019.0 0.0
18/07:00pm 17.5 13.3 15.8 90 1.0 E 32 39 17 21 1019.0 1019.0 0.0
18/06:30pm 18.2 14.1 16.0 87 1.3 ESE 32 41 17 22 1018.4 1018.4 0.0
18/06:00pm 18.6 15.3 16.0 85 1.5 E 28 35 15 19 1018.3 1018.3 0.0
18/05:30pm 20.4 18.1 16.6 79 2.3 E 24 33 13 18 1018.0 1018.0 0.0
18/05:00pm 21.4 19.6 17.0 76 2.7 ESE 22 30 12 16 1017.7 1017.7 0.0
18/04:30pm 20.9 17.6 16.1 74 2.9 E 28 33 15 18 1017.9 1017.9 0.0
18/04:00pm 21.1 18.7 16.5 75 2.8 E 24 32 13 17 1018.0 1018.0 0.0
18/03:30pm 21.4 18.6 17.4 78 2.5 ESE 28 33 15 18 1018.1 1018.1 0.0
18/03:00pm 21.5 18.4 16.5 73 3.0 E 28 33 15 18 1018.1 1018.1 0.0
18/02:30pm 21.3 18.9 16.3 73 3.0 E 24 30 13 16 1018.2 1018.2 0.0
18/02:00pm 21.9 19.9 17.5 76 2.7 E 24 32 13 17 1018.3 1018.3 0.0
18/01:30pm 21.3 18.6 16.5 74 2.9 E 26 33 14 18 1018.0 1018.0 0.0
18/01:00pm 21.1 18.2 17.1 78 2.4 E 28 35 15 19 1018.1 1018.1 0.0
18/12:30pm 20.9 18.1 17.3 80 2.2 E 28 33 15 18 1018.1 1018.1 0.0
18/12:00pm 21.1 18.8 17.7 81 2.1 E 26 32 14 17 1018.1 1018.1 0.0
18/11:30am 21.1 19.1 17.5 80 2.2 E 24 33 13 18 1018.0 1018.0 0.0
18/11:00am 20.7 18.0 16.7 78 2.4 E 26 33 14 18 1017.8 1017.8 0.0
18/10:30am 20.3 17.8 17.1 82 2.0 E 26 32 14 17 1017.5 1017.5 0.0
18/10:04am 19.5 17.0 16.2 81 2.0 ENE 24 32 13 17 1017.6 1017.6 0.0
18/10:00am 19.5 17.1 16.5 83 1.8 ENE 24 32 13 17 1017.7 1017.7 0.0
18/09:30am 18.4 15.5 16.2 87 1.3 ENE 26 33 14 18 1017.7 1017.7 0.0
18/09:00am 17.1 13.7 15.8 92 0.8 ENE 28 37 15 20 1017.3 1017.3 0.0
18/08:30am 16.5 13.4 15.7 95 0.5 E 26 35 14 19 1017.0 1017.0 0.0
18/08:00am 16.3 13.6 15.7 96 0.4 E 24 30 13 16 1016.7 1016.7 0.0
18/07:30am 16.0 12.5 15.5 97 0.3 E 28 37 15 20 1016.5 1016.5 0.0
18/07:16am 15.8 12.7 15.5 98 0.2 E 26 35 14 19 1016.4 1016.4 0.0
18/07:00am 15.7 12.6 15.5 99 0.1 E 26 35 14 19 1016.1 1016.1 0.0
18/06:57am 15.7 12.6 15.5 99 0.1 E 26 35 14 19 1016.1 1016.1 0.0
18/06:30am 15.5 13.4 15.2 98 0.2 E 20 30 11 16 1016.2 1016.2 0.0
18/06:15am 15.5 12.7 15.3 99 0.1 E 24 32 13 17 1016.1 1016.1 0.0
18/06:00am 15.5 12.3 15.3 99 0.1 E 26 35 14 19 1015.8 1015.8 0.0
18/05:30am 15.6 13.3 15.6 100 0.0 E 22 32 12 17 1015.8 1015.8 0.0
18/05:00am 15.5 12.4 15.5 100 0.0 E 26 35 14 19 1015.6 1015.6 0.0
18/04:30am 15.5 11.5 15.3 99 0.1 E 30 39 16 21 1015.1 1015.1 0.0
18/04:10am 15.7 11.4 15.4 98 0.2 E 32 46 17 25 1014.9 1014.9 0.0
18/04:00am 15.8 11.8 15.2 96 0.3 E 30 41 16 22 1015.2 1015.2 0.0
18/03:30am 15.8 11.8 15.2 96 0.3 ESE 30 37 16 20 1015.1 1015.1 0.0
18/03:00am 15.8 12.2 15.3 97 0.3 E 28 33 15 18 1015.3 1015.3 0.0
18/02:30am 15.9 12.0 15.6 98 0.2 ESE 30 37 16 20 1015.5 1015.5 0.0
18/02:00am 15.9 12.0 15.4 97 0.3 E 30 41 16 22 1015.6 1015.6 0.0
18/01:30am 15.9 11.6 15.4 97 0.3 E 32 39 17 21 1015.6 1015.6 0.0
18/01:00am 16.1 11.3 15.5 96 0.3 E 35 50 19 27 1015.7 1015.7 0.0
18/12:30am 16.2 11.9 15.4 95 0.5 E 32 41 17 22 1016.2 1016.2 0.0
18/12:00am 16.0 12.0 15.2 95 0.5 E 30 39 16 21 1015.9 1015.9 0.0
 
Date/Time
EDT
Temp
°C
App
Temp
°C
Dew
Point
°C
Rel
Hum
%
Delta-T
°C
Wind Press
QNH
hPa
Press
MSL
hPa
Rain since
9am
mm
Dir  Spd
km/h
Gust
km/h
Spd
kts
Gust
kts
17/11:30pm 15.9 11.5 15.1 95 0.5 E 32 44 17 24 1015.6 1015.6 0.0
17/11:19pm 16.0 11.4 15.2 95 0.5 E 33 52 18 28 1015.6 1015.6 0.0
17/11:00pm 16.1 10.7 15.1 94 0.6 E 37 50 20 27 1015.8 1015.8 0.0
17/10:30pm 15.9 10.9 15.1 95 0.5 E 35 50 19 27 1016.0 1016.0 0.0
17/10:00pm 15.6 10.9 14.8 95 0.5 E 33 43 18 23 1015.8 1015.8 0.0
17/09:50pm 15.5 10.7 14.7 95 0.5 E 33 46 18 25 1015.8 1015.8 0.0
17/09:30pm 15.6 11.1 14.8 95 0.5 E 32 41 17 22 1015.5 1015.5 0.0
17/09:14pm 15.6 11.1 14.8 95 0.5 E 32 39 17 21 1015.4 1015.4 0.0
17/09:00pm 15.6 11.0 14.6 94 0.6 E 32 41 17 22 1015.4 1015.4 0.0
17/08:30pm 15.7 11.5 14.7 94 0.6 E 30 46 16 25 1015.5 1015.5 0.0
17/08:00pm 16.3 11.4 15.2 93 0.6 E 35 44 19 24 1015.2 1015.2 0.0
17/07:30pm 16.8 12.0 15.5 92 0.8 E 35 46 19 25 1015.1 1015.1 0.0
17/07:00pm 17.1 12.4 15.8 92 0.8 E 35 48 19 26 1014.4 1014.4 0.0
17/06:30pm 17.4 12.3 15.7 90 1.0 E 37 52 20 28 1014.2 1014.2 0.0
17/06:00pm 17.5 12.0 15.8 90 1.0 E 39 54 21 29 1014.2 1014.2 0.0
17/05:30pm 18.0 13.4 16.2 89 1.1 E 35 52 19 28 1014.6 1014.6 0.0
17/05:00pm 18.5 13.1 15.9 85 1.5 E 39 52 21 28 1014.8 1014.8 0.0
17/04:43pm 18.5 13.5 16.1 86 1.4 E 37 57 20 31 1014.9 1014.9 0.0
17/04:30pm 18.6 13.6 16.2 86 1.4 E 37 48 20 26 1014.8 1014.8 0.0
17/04:00pm 18.3 14.1 16.3 88 1.2 E 33 50 18 27 1014.7 1014.7 0.0
17/03:54pm 18.4 14.4 16.6 89 1.1 E 33 52 18 28 1014.7 1014.7 0.0
17/03:30pm 18.3 13.5 16.5 89 1.1 E 37 50 20 27 1014.8 1014.8 0.0
17/03:00pm 18.6 13.5 16.8 89 1.1 E 39 46 21 25 1014.8 1014.8 0.0
17/02:30pm 18.8 14.3 16.4 86 1.4 E 35 50 19 27 1014.8 1014.8 0.0
17/02:13pm 19.0 13.4 16.6 86 1.4 E 41 52 22 28 1014.9 1014.9 0.0
17/02:00pm 19.0 13.4 16.6 86 1.4 E 41 54 22 29 1015.0 1015.0 0.0
17/01:30pm 19.5 14.4 16.9 85 1.6 E 39 54 21 29 1015.5 1015.5 0.0
17/01:09pm 19.3 14.2 16.7 85 1.6 E 39 57 21 31 1015.5 1015.5 0.0
17/01:00pm 19.9 15.9 17.5 86 1.5 E 35 48 19 26 1015.3 1015.3 0.0
17/12:30pm 18.8 14.0 16.6 87 1.3 E 37 50 20 27 1015.5 1015.5 0.0
17/12:08pm 18.1 13.6 16.4 90 1.0 E 35 54 19 29 1015.5 1015.5 0.0
17/12:00pm 18.6 14.0 17.1 91 0.9 E 37 52 20 28 1015.5 1015.5 0.0
17/11:35am 17.7 13.3 16.7 94 0.6 E 35 46 19 25 1015.6 1015.6 0.0
17/11:30am 17.1 12.6 16.3 95 0.5 E 35 50 19 27 1015.6 1015.6 0.0
17/11:00am 16.6 12.1 16.3 98 0.2 E 35 50 19 27 1015.7 1015.7 0.0
17/10:31am 16.3 12.0 16.0 98 0.2 E 33 52 18 28 1015.8 1015.8 0.0
17/10:30am 16.4 12.2 16.1 98 0.2 E 33 46 18 25 1015.8 1015.8 0.0
17/10:19am 16.4 11.8 16.1 98 0.2 E 35 54 19 29 1015.7 1015.7 0.0
17/10:00am 16.4 12.2 16.1 98 0.2 E 33 48 18 26 1015.6 1015.6 0.0
17/09:49am 16.6 12.4 16.3 98 0.2 E 33 44 18 24 1015.8 1015.8 0.0
17/09:46am 16.5 11.9 16.2 98 0.2 E 35 46 19 25 1015.7 1015.7 0.0
17/09:30am 16.3 12.0 16.0 98 0.2 E 33 50 18 27 1015.8 1015.8 0.0
17/09:00am 16.3 11.3 16.1 99 0.1 E 37 52 20 28 1015.8 1015.8 1.6
17/08:30am 16.2 11.2 16.0 99 0.1 E 37 54 20 29 1015.5 1015.5 1.6
17/08:11am 16.2 10.8 16.0 99 0.1 E 39 54 21 29 1015.3 1015.3 1.6
17/08:00am 16.3 11.3 16.0 98 0.2 E 37 50 20 27 1015.2 1015.2 1.6
17/07:36am 16.2 12.1 15.9 98 0.2 E 32 50 17 27 1015.0 1015.0 1.6
17/07:30am 16.2 11.5 15.9 98 0.2 ESE 35 50 19 27 1014.9 1014.9 1.6
17/07:05am 16.0 11.6 15.7 98 0.2 E 33 44 18 24 1014.9 1014.9 1.6
17/07:00am 15.9 11.5 15.7 99 0.1 ESE 33 44 18 24 1014.8 1014.8 1.6
17/06:39am 15.8 11.1 15.8 100 0.0 E 35 54 19 29 1014.8 1014.8 1.6
17/06:30am 15.7 11.3 15.7 100 0.0 E 33 50 18 27 1014.9 1014.9 1.6
17/06:07am 15.7 11.3 15.7 100 0.0 E 33 54 18 29 1014.6 1014.6 1.6
17/06:00am 15.7 11.5 15.7 100 0.0 E 32 41 17 22 1014.6 1014.6 1.6
17/05:30am 15.7 10.9 15.5 99 0.1 E 35 50 19 27 1014.2 1014.2 1.6
17/05:26am 15.6 10.7 15.4 99 0.1 E 35 48 19 26 1014.2 1014.2 1.6
17/05:00am 15.5 10.9 15.2 98 0.2 ESE 33 44 18 24 1013.9 1013.9 1.6
17/04:32am 15.2 10.1 14.7 97 0.3 ESE 35 46 19 25 1013.9 1013.9 1.6
17/04:30am 15.2 10.4 14.7 97 0.3 ESE 33 43 18 23 1013.9 1013.9 1.6
17/04:00am 15.1 9.9 14.6 97 0.3 ESE 35 50 19 27 1014.1 1014.1 1.6
17/03:52am 15.1 9.1 14.5 96 0.3 ESE 39 50 21 27 1014.2 1014.2 1.6
17/03:30am 15.2 9.1 14.2 94 0.6 ESE 39 52 21 28 1014.4 1014.4 1.6
17/03:00am 15.1 9.0 14.0 93 0.6 ESE 39 54 21 29 1014.6 1014.6 1.6
17/02:40am 15.1 9.7 14.0 93 0.6 ESE 35 54 19 29 1014.9 1014.9 1.6
17/02:30am 15.0 8.8 13.9 93 0.6 ESE 39 50 21 27 1014.9 1014.9 1.6
17/02:00am 15.0 10.0 13.9 93 0.6 ESE 33 46 18 25 1015.0 1015.0 1.6
17/01:30am 14.9 9.2 14.1 95 0.5 ESE 37 48 20 26 1015.3 1015.3 1.6
17/01:00am 15.0 9.3 14.2 95 0.5 ESE 37 48 20 26 1015.0 1015.0 1.2
17/12:30am 15.4 10.3 14.8 96 0.3 ESE 35 48 19 26 1015.2 1015.2 0.8
17/12:00am 15.5 9.3 14.9 96 0.3 ESE 41 54 22 29 1015.2 1015.2 0.6
 
Date/Time
EDT
Temp
°C
App
Temp
°C
Dew
Point
°C
Rel
Hum
%
Delta-T
°C
Wind Press
QNH
hPa
Press
MSL
hPa
Rain since
9am
mm
Dir  Spd
km/h
Gust
km/h
Spd
kts
Gust
kts
16/11:30pm 15.5 9.7 14.9 96 0.3 ESE 39 52 21 28 1015.1 1015.1 0.6
16/11:00pm 15.7 9.5 14.9 95 0.5 ESE 41 57 22 31 1014.9 1014.9 0.4
16/10:30pm 15.6 10.1 14.8 95 0.5 ESE 37 54 20 29 1014.7 1014.7 0.4
16/10:00pm 15.5 10.4 14.9 96 0.3 ESE 35 50 19 27 1014.5 1014.5 0.4
16/09:30pm 15.6 11.5 15.0 96 0.3 ESE 30 41 16 22 1014.5 1014.5 0.4
16/09:00pm 15.6 10.5 14.8 95 0.5 ESE 35 50 19 27 1014.5 1014.5 0.4
16/08:30pm 15.5 10.4 14.9 96 0.3 ESE 35 50 19 27 1014.3 1014.3 0.4
16/08:00pm 15.7 10.6 14.9 95 0.5 ESE 35 50 19 27 1014.2 1014.2 0.4
16/07:52pm 15.7 10.6 14.7 94 0.6 ESE 35 54 19 29 1014.1 1014.1 0.4
16/07:30pm 15.9 10.5 14.9 94 0.6 E 37 52 20 28 1014.4 1014.4 0.4
16/07:00pm 16.0 10.1 14.7 92 0.7 E 39 57 21 31 1013.9 1013.9 0.4
16/06:34pm 16.0 10.0 14.5 91 0.9 E 39 57 21 31 1014.0 1014.0 0.4
16/06:30pm 16.0 10.4 14.5 91 0.9 E 37 52 20 28 1013.9 1013.9 0.4
16/06:00pm 16.3 10.8 14.8 91 0.9 ESE 37 54 20 29 1013.6 1013.5 0.4
16/05:51pm 16.3 11.2 14.7 90 0.9 E 35 54 19 29 1013.7 1013.6 0.4
16/05:30pm 16.4 10.9 14.8 90 0.9 E 37 50 20 27 1013.5 1013.4 0.4
16/05:00pm 16.3 10.4 14.7 90 0.9 ESE 39 54 21 29 1013.2 1013.1 0.4
16/04:30pm 16.4 11.0 14.9 91 0.9 ESE 37 50 20 27 1013.3 1013.2 0.4
16/04:00pm 16.0 10.9 14.9 93 0.6 ESE 35 54 19 29 1013.5 1013.4 0.4
16/03:59pm 15.8 10.6 14.5 92 0.7 ESE 35 54 19 29 1013.5 1013.4 0.4
16/03:30pm 16.1 10.8 15.3 95 0.5 ESE 37 50 20 27 1013.7 1013.6 0.4
16/03:00pm 15.6 10.2 15.0 96 0.3 E 37 48 20 26 1014.0 1014.0 0.4
16/02:47pm 15.4 10.3 14.8 96 0.3 ESE 35 52 19 28 1013.7 1013.6 0.2
16/02:30pm 15.5 10.6 15.2 98 0.2 ESE 35 44 19 24 1013.9 1013.9 0.2
16/02:16pm 15.4 10.4 15.1 98 0.2 ESE 35 54 19 29 1013.9 1013.9 0.2
16/02:00pm 15.7 10.4 15.4 98 0.2 ESE 37 46 20 25 1014.0 1014.0 0.2
16/01:30pm 15.9 11.1 15.6 98 0.2 ESE 35 52 19 28 1014.0 1014.0 0.2
16/01:01pm 15.7 10.7 15.1 96 0.3 ESE 35 52 19 28 1013.9 1013.9 0.2
16/01:00pm 15.8 10.9 15.2 96 0.3 ESE 35 52 19 28 1013.9 1013.9 0.2
16/12:30pm 15.9 10.2 15.1 95 0.5 ESE 39 54 21 29 1013.3 1013.2 0.2
16/12:00pm 16.4 11.3 14.9 91 0.9 ESE 35 50 19 27 1013.3 1013.2 0.0
16/11:37am 16.4 11.3 14.9 91 0.9 ESE 35 54 19 29 1013.3 1013.2 0.0
16/11:30am 16.4 11.0 14.9 91 0.9 ESE 37 50 20 27 1013.4 1013.3 0.0
16/11:13am 16.5 12.6 15.4 93 0.6 ESE 30 48 16 26 1013.7 1013.6 0.0
16/11:03am 16.4 12.4 15.3 93 0.6 ESE 30 41 16 22 1013.9 1013.9 0.0
16/11:00am 16.5 12.6 15.5 94 0.6 ESE 30 41 16 22 1013.9 1013.9 0.0
16/10:30am 16.0 13.5 15.2 95 0.5 SE 22 30 12 16 1014.0 1014.0 0.0

Other Formats:

Comma delimited format used in spreadsheet applications
http://www.bom.gov.au/fwo/IDT60801/IDT60801.94850.axf

JavaScript Object Notation format (JSON) in row-major order
http://www.bom.gov.au/fwo/IDT60801/IDT60801.94850.json